Time;durP1;ratioP1;P1;durP2;ratioP2;P2;SDS_P1;SDS_P2;PMS_P1;PMS_P2;Temp;Humidity;BMP_temperature;BMP_pressure;BME280_temperature;BME280_humidity;BME280_pressure;Samples;Min_cycle;Max_cycle;Signal;HPM_P1;HPM_P2
2023/04/29 00:02:19;;;;;;;40.97;23.95;;;;;;;;;;5042814;28;20513;-74
2023/04/29 00:04:45;;;;;;;37.05;24.35;;;;;;;;;;5026846;28;20137;-74
2023/04/29 00:07:14;;;;;;;46.65;24.33;;;;;;;;;;5047613;28;20140;-74
2023/04/29 00:09:40;;;;;;;39.33;23.10;;;;;;;;;;5040692;28;20041;-74
2023/04/29 00:12:06;;;;;;;38.85;23.70;;;;;;;;;;5052047;28;20497;-74
2023/04/29 00:14:32;;;;;;;40.85;23.52;;;;;;;;;;5033314;28;20048;-74
2023/04/29 00:16:58;;;;;;;38.47;23.63;;;;;;;;;;5014538;28;20045;-74
2023/04/29 00:19:24;;;;;;;41.08;23.08;;;;;;;;;;5032311;28;20041;-74
2023/04/29 00:21:51;;;;;;;35.05;22.38;;;;;;;;;;5031941;28;20129;-74
2023/04/29 00:24:17;;;;;;;40.13;21.83;;;;;;;;;;5032220;28;20060;-74
2023/04/29 00:26:43;;;;;;;33.90;20.98;;;;;;;;;;5030180;28;20497;-74
2023/04/29 00:29:09;;;;;;;33.95;21.20;;;;;;;;;;5051800;28;20048;-74
2023/04/29 00:31:36;;;;;;;33.58;20.48;;;;;;;;;;5051724;28;20048;-74
2023/04/29 00:34:02;;;;;;;33.88;20.38;;;;;;;;;;5051656;28;20087;-74
2023/04/29 00:36:30;;;;;;;32.88;19.63;;;;;;;;;;5051999;28;20053;-74
2023/04/29 00:38:57;;;;;;;33.20;19.58;;;;;;;;;;5050637;28;20075;-73
2023/04/29 00:41:23;;;;;;;36.63;19.83;;;;;;;;;;5033779;28;20081;-74
2023/04/29 00:43:50;;;;;;;37.75;19.10;;;;;;;;;;5051366;28;20045;-73
2023/04/29 00:46:16;;;;;;;32.38;18.70;;;;;;;;;;5051799;28;20347;-73
2023/04/29 00:48:42;;;;;;;32.88;18.08;;;;;;;;;;5051731;28;20379;-74
2023/04/29 00:51:08;;;;;;;26.80;17.08;;;;;;;;;;5016743;28;20086;-73
2023/04/29 00:53:35;;;;;;;29.35;18.13;;;;;;;;;;5032321;28;20037;-73
2023/04/29 00:56:02;;;;;;;30.02;17.73;;;;;;;;;;5051377;28;20099;-73
2023/04/29 00:58:32;;;;;;;34.10;18.50;;;;;;;;;;5050815;28;20041;-74
2023/04/29 01:01:05;;;;;;;30.98;17.20;;;;;;;;;;5031912;28;20414;-73
2023/04/29 01:03:31;;;;;;;28.15;17.95;;;;;;;;;;5054154;28;20037;-73
2023/04/29 01:06:07;;;;;;;31.08;17.27;;;;;;;;;;5054526;28;20041;-73
2023/04/29 01:08:37;;;;;;;29.10;17.80;;;;;;;;;;5053935;28;20056;-74
2023/04/29 01:11:03;;;;;;;26.90;16.30;;;;;;;;;;5054279;28;20045;-73
2023/04/29 01:13:37;;;;;;;27.92;16.88;;;;;;;;;;5055066;28;20482;-73
2023/04/29 01:16:04;;;;;;;25.60;16.95;;;;;;;;;;5066552;28;20409;-74
2023/04/29 01:18:36;;;;;;;24.17;16.85;;;;;;;;;;5055206;28;20512;-74
2023/04/29 01:21:02;;;;;;;28.02;16.35;;;;;;;;;;5054757;28;20049;-74
2023/04/29 01:23:28;;;;;;;29.23;17.98;;;;;;;;;;5054893;28;20094;-74
2023/04/29 01:25:55;;;;;;;28.55;16.98;;;;;;;;;;5019966;28;20041;-74
2023/04/29 01:28:27;;;;;;;29.63;17.52;;;;;;;;;;5050647;28;20044;-74
2023/04/29 01:30:58;;;;;;;29.65;17.45;;;;;;;;;;5053658;28;20045;-74
2023/04/29 01:33:36;;;;;;;29.88;17.15;;;;;;;;;;5054647;28;20065;-74
2023/04/29 01:36:02;;;;;;;29.73;17.88;;;;;;;;;;5054428;28;20387;-74
2023/04/29 01:38:52;;;;;;;31.42;18.13;;;;;;;;;;5054665;28;20091;-74
2023/04/29 01:41:22;;;;;;;27.52;17.92;;;;;;;;;;5053482;28;20409;-74
2023/04/29 01:43:50;;;;;;;28.35;18.42;;;;;;;;;;5036645;28;20041;-74
2023/04/29 01:46:18;;;;;;;26.77;16.98;;;;;;;;;;5019916;28;20529;-74
2023/04/29 01:48:45;;;;;;;26.92;18.42;;;;;;;;;;5036047;28;20095;-74
2023/04/29 01:51:11;;;;;;;28.23;17.42;;;;;;;;;;5054052;28;20049;-74
2023/04/29 01:53:39;;;;;;;27.02;18.17;;;;;;;;;;5019174;28;20084;-74
2023/04/29 01:56:06;;;;;;;28.45;18.35;;;;;;;;;;5019537;28;20145;-75
2023/04/29 01:58:32;;;;;;;33.55;18.73;;;;;;;;;;5036413;28;20053;-74
2023/04/29 02:00:58;;;;;;;27.88;18.13;;;;;;;;;;5054217;28;20165;-74
2023/04/29 02:03:24;;;;;;;27.88;18.38;;;;;;;;;;5058862;28;20040;-73
2023/04/29 02:05:51;;;;;;;28.73;19.42;;;;;;;;;;5054480;28;20056;-74
2023/04/29 02:08:17;;;;;;;30.98;19.55;;;;;;;;;;5036233;28;20045;-74
2023/04/29 02:10:56;;;;;;;32.15;19.25;;;;;;;;;;5053739;28;20086;-74
2023/04/29 02:13:22;;;;;;;33.13;20.23;;;;;;;;;;5052947;28;20050;-74
2023/04/29 02:15:48;;;;;;;36.95;20.30;;;;;;;;;;5052885;28;20051;-74
2023/04/29 02:18:14;;;;;;;31.48;18.92;;;;;;;;;;5036266;28;20049;-74
2023/04/29 02:20:40;;;;;;;31.88;18.98;;;;;;;;;;5053493;28;20048;-74
2023/04/29 02:23:06;;;;;;;36.85;19.85;;;;;;;;;;5054124;28;20041;-74
2023/04/29 02:25:32;;;;;;;32.38;19.17;;;;;;;;;;5052863;28;20049;-74
2023/04/29 02:27:58;;;;;;;29.90;19.38;;;;;;;;;;5052646;28;20052;-74
2023/04/29 02:30:24;;;;;;;31.83;20.02;;;;;;;;;;5049742;28;20060;-74
2023/04/29 02:32:51;;;;;;;29.77;19.35;;;;;;;;;;5041476;28;20107;-74
2023/04/29 02:35:18;;;;;;;28.13;19.42;;;;;;;;;;5053243;28;20090;-74
2023/04/29 02:37:44;;;;;;;35.05;20.17;;;;;;;;;;5053275;28;20045;-74
2023/04/29 02:40:11;;;;;;;38.17;19.65;;;;;;;;;;5044380;28;20045;-74
2023/04/29 02:42:37;;;;;;;33.22;20.50;;;;;;;;;;5052556;28;20045;-74
2023/04/29 02:45:03;;;;;;;40.97;20.77;;;;;;;;;;5050180;28;20049;-74
2023/04/29 02:47:29;;;;;;;34.95;19.50;;;;;;;;;;5052618;28;20044;-74
2023/04/29 02:49:55;;;;;;;35.15;19.83;;;;;;;;;;5052983;28;20040;-74
2023/04/29 02:52:22;;;;;;;34.13;20.58;;;;;;;;;;5046026;28;20509;-74
2023/04/29 02:54:48;;;;;;;33.45;19.83;;;;;;;;;;5050821;28;20469;-74
2023/04/29 02:57:14;;;;;;;36.40;19.75;;;;;;;;;;5052991;28;20123;-74
2023/04/29 02:59:40;;;;;;;33.38;18.92;;;;;;;;;;5052605;28;20037;-74
2023/04/29 03:02:06;;;;;;;28.65;19.77;;;;;;;;;;5052654;28;20048;-74
2023/04/29 03:04:32;;;;;;;34.70;20.17;;;;;;;;;;5047394;28;20099;-74
2023/04/29 03:06:58;;;;;;;31.05;19.77;;;;;;;;;;5051574;28;20519;-74
2023/04/29 03:09:24;;;;;;;34.20;20.25;;;;;;;;;;5018939;28;20456;-74
2023/04/29 03:11:50;;;;;;;36.08;20.65;;;;;;;;;;5052312;28;20084;-74
2023/04/29 03:14:16;;;;;;;40.58;21.55;;;;;;;;;;5034950;28;20045;-73
2023/04/29 03:16:43;;;;;;;33.53;19.45;;;;;;;;;;5050881;28;20047;-73
2023/04/29 03:19:09;;;;;;;34.58;19.52;;;;;;;;;;5052145;28;20040;-73
2023/04/29 03:21:35;;;;;;;33.88;20.83;;;;;;;;;;5047399;28;20059;-73
2023/04/29 03:24:01;;;;;;;30.90;19.30;;;;;;;;;;5052092;28;20053;-73
2023/04/29 03:26:27;;;;;;;34.33;19.38;;;;;;;;;;5045638;28;20489;-73
2023/04/29 03:28:53;;;;;;;30.70;18.00;;;;;;;;;;5051393;28;20051;-73
2023/04/29 03:31:21;;;;;;;31.83;17.77;;;;;;;;;;5045171;28;20048;-73
2023/04/29 03:33:47;;;;;;;30.05;19.15;;;;;;;;;;5048811;28;20053;-74
2023/04/29 03:36:14;;;;;;;28.42;17.80;;;;;;;;;;5043714;28;20045;-73
2023/04/29 03:38:40;;;;;;;27.52;17.73;;;;;;;;;;5050849;28;20037;-73
2023/04/29 03:41:06;;;;;;;30.05;17.98;;;;;;;;;;5052068;28;20045;-73
2023/04/29 03:43:32;;;;;;;31.48;16.60;;;;;;;;;;5046798;28;20048;-74
2023/04/29 03:45:58;;;;;;;31.15;16.77;;;;;;;;;;5049663;28;20049;-74
2023/04/29 03:48:24;;;;;;;25.48;16.30;;;;;;;;;;5043245;28;20056;-73
2023/04/29 03:50:50;;;;;;;32.10;16.10;;;;;;;;;;5051360;28;20092;-73
2023/04/29 03:53:17;;;;;;;27.20;14.77;;;;;;;;;;5050285;28;20068;-74
2023/04/29 03:55:43;;;;;;;23.95;14.48;;;;;;;;;;5046408;28;20045;-73
2023/04/29 03:58:09;;;;;;;28.02;14.52;;;;;;;;;;5052251;28;20041;-73
2023/04/29 04:00:35;;;;;;;22.88;13.55;;;;;;;;;;5049650;28;20049;-73
2023/04/29 04:03:01;;;;;;;24.40;14.38;;;;;;;;;;5048174;28;20131;-74
2023/04/29 04:05:28;;;;;;;27.88;13.60;;;;;;;;;;5050369;28;20044;-72
2023/04/29 04:07:54;;;;;;;22.95;13.50;;;;;;;;;;5049741;28;20106;-73
2023/04/29 04:10:20;;;;;;;25.05;13.35;;;;;;;;;;5051535;28;20045;-74
2023/04/29 04:12:46;;;;;;;20.88;13.35;;;;;;;;;;5051488;28;20493;-73
2023/04/29 04:15:12;;;;;;;27.25;12.88;;;;;;;;;;5043879;28;20033;-73
2023/04/29 04:17:39;;;;;;;24.63;14.27;;;;;;;;;;5050811;28;20053;-73
2023/04/29 04:20:05;;;;;;;25.27;14.07;;;;;;;;;;5025535;28;20095;-74
2023/04/29 04:22:31;;;;;;;26.50;14.50;;;;;;;;;;5050430;28;20144;-73
2023/04/29 04:24:57;;;;;;;23.25;13.77;;;;;;;;;;5050361;28;20132;-73
2023/04/29 04:27:23;;;;;;;25.00;13.55;;;;;;;;;;5051161;28;20039;-73
2023/04/29 04:29:53;;;;;;;27.35;14.73;;;;;;;;;;5051829;28;20115;-73
2023/04/29 04:32:20;;;;;;;25.30;14.02;;;;;;;;;;5051229;28;20066;-73
2023/04/29 04:34:47;;;;;;;26.67;13.95;;;;;;;;;;5047989;28;20327;-74
2023/04/29 04:37:13;;;;;;;26.17;14.05;;;;;;;;;;5053990;28;20505;-73
2023/04/29 04:39:39;;;;;;;26.17;13.07;;;;;;;;;;5050950;28;20040;-73
2023/04/29 04:42:05;;;;;;;26.80;13.82;;;;;;;;;;5046736;28;20071;-73
2023/04/29 04:44:32;;;;;;;26.15;13.68;;;;;;;;;;5054105;28;20422;-73
2023/04/29 04:47:00;;;;;;;26.10;14.38;;;;;;;;;;5055412;28;20513;-73
2023/04/29 04:49:26;;;;;;;28.83;14.13;;;;;;;;;;5058055;28;20075;-73
2023/04/29 04:51:52;;;;;;;26.27;14.05;;;;;;;;;;5057559;28;20075;-74
2023/04/29 04:54:18;;;;;;;27.10;13.73;;;;;;;;;;5044811;28;20049;-73
2023/04/29 04:56:45;;;;;;;27.73;14.57;;;;;;;;;;5061913;28;20542;-74
2023/04/29 04:59:11;;;;;;;26.45;13.70;;;;;;;;;;5054964;28;20128;-73
2023/04/29 05:01:37;;;;;;;26.08;14.25;;;;;;;;;;5054840;28;20052;-73
2023/04/29 05:04:03;;;;;;;22.42;13.45;;;;;;;;;;5055266;28;20067;-73
2023/04/29 05:06:29;;;;;;;22.30;13.10;;;;;;;;;;5055385;28;20037;-73
2023/04/29 05:08:55;;;;;;;22.48;12.27;;;;;;;;;;5037514;28;20087;-74
2023/04/29 05:11:21;;;;;;;23.75;12.27;;;;;;;;;;5031062;28;20095;-73
2023/04/29 05:13:48;;;;;;;23.25;12.25;;;;;;;;;;5055115;28;20486;-73
2023/04/29 05:16:16;;;;;;;19.15;11.57;;;;;;;;;;5054892;28;20470;-73
2023/04/29 05:18:44;;;;;;;18.55;11.45;;;;;;;;;;5055053;28;20047;-73
2023/04/29 05:21:10;;;;;;;21.88;11.63;;;;;;;;;;5046439;28;20081;-73
2023/04/29 05:23:37;;;;;;;20.08;11.60;;;;;;;;;;5053551;28;20036;-73
2023/04/29 05:26:03;;;;;;;21.02;12.13;;;;;;;;;;5020440;28;20490;-73
2023/04/29 05:28:29;;;;;;;21.55;12.50;;;;;;;;;;5054959;28;20037;-73
2023/04/29 05:30:55;;;;;;;19.77;11.57;;;;;;;;;;5054819;28;20049;-73
2023/04/29 05:33:21;;;;;;;18.98;12.02;;;;;;;;;;5036669;28;20057;-73
2023/04/29 05:35:47;;;;;;;20.73;11.77;;;;;;;;;;5054454;28;20041;-73
2023/04/29 05:38:13;;;;;;;20.73;11.48;;;;;;;;;;5054792;28;20124;-73
2023/04/29 05:40:39;;;;;;;20.83;12.13;;;;;;;;;;5041258;28;20045;-73
2023/04/29 05:43:06;;;;;;;23.35;12.43;;;;;;;;;;5053924;28;20047;-72
2023/04/29 05:45:32;;;;;;;20.58;11.82;;;;;;;;;;5049298;28;20056;-73
2023/04/29 05:48:01;;;;;;;19.77;12.23;;;;;;;;;;5053086;28;20417;-72
2023/04/29 05:50:27;;;;;;;22.75;12.00;;;;;;;;;;5054293;28;20045;-73
2023/04/29 05:52:55;;;;;;;19.40;11.63;;;;;;;;;;5036613;28;20516;-72
2023/04/29 05:55:21;;;;;;;20.38;12.25;;;;;;;;;;5047419;28;20056;-72
2023/04/29 05:57:47;;;;;;;19.17;12.10;;;;;;;;;;5036556;28;20041;-73
2023/04/29 06:00:13;;;;;;;18.23;11.27;;;;;;;;;;5054186;28;20048;-73
2023/04/29 06:02:41;;;;;;;20.15;12.35;;;;;;;;;;5054249;28;20044;-73
2023/04/29 06:05:08;;;;;;;18.25;11.70;;;;;;;;;;5053673;28;20064;-73
2023/04/29 06:07:35;;;;;;;22.48;11.75;;;;;;;;;;5048034;28;20105;-73
2023/04/29 06:10:01;;;;;;;20.00;10.80;;;;;;;;;;5054327;28;20500;-74
2023/04/29 06:12:27;;;;;;;16.65;10.65;;;;;;;;;;5053848;28;20049;-74
2023/04/29 06:14:53;;;;;;;19.02;10.50;;;;;;;;;;5053845;28;20041;-74
2023/04/29 06:17:19;;;;;;;19.98;11.10;;;;;;;;;;5047160;28;20055;-73
2023/04/29 06:19:44;;;;;;;20.00;10.50;;;;;;;;;;5053854;28;20116;-73
2023/04/29 06:22:11;;;;;;;15.13;10.13;;;;;;;;;;5029031;28;20481;-74
2023/04/29 06:24:37;;;;;;;20.05;10.82;;;;;;;;;;5053308;28;20033;-73
2023/04/29 06:27:03;;;;;;;19.15;10.05;;;;;;;;;;5044760;28;20048;-73
2023/04/29 06:29:29;;;;;;;16.20;10.20;;;;;;;;;;5054038;28;20371;-73
2023/04/29 06:31:55;;;;;;;17.65;10.23;;;;;;;;;;5051266;28;20049;-74
2023/04/29 06:34:21;;;;;;;18.15;9.90;;;;;;;;;;5046796;28;20055;-73
2023/04/29 06:36:47;;;;;;;20.85;9.65;;;;;;;;;;5053816;28;20102;-73
2023/04/29 06:39:13;;;;;;;18.67;9.98;;;;;;;;;;5044910;28;20048;-73
2023/04/29 06:41:39;;;;;;;17.55;9.88;;;;;;;;;;5052443;28;20071;-73
2023/04/29 06:44:05;;;;;;;20.58;9.55;;;;;;;;;;5045038;28;20041;-73
2023/04/29 06:46:33;;;;;;;17.27;9.90;;;;;;;;;;5052285;28;20072;-73
2023/04/29 06:48:58;;;;;;;18.10;10.15;;;;;;;;;;5053226;28;20620;-73
2023/04/29 06:51:26;;;;;;;15.20;9.27;;;;;;;;;;5053449;28;20136;-74
2023/04/29 06:53:52;;;;;;;13.68;9.18;;;;;;;;;;5048705;28;20053;-74
2023/04/29 06:56:19;;;;;;;16.40;10.02;;;;;;;;;;5052749;28;20037;-74
2023/04/29 06:58:45;;;;;;;14.55;9.10;;;;;;;;;;5048436;28;20048;-74
2023/04/29 07:01:11;;;;;;;17.85;8.30;;;;;;;;;;5053002;28;20041;-74
2023/04/29 07:03:37;;;;;;;18.73;9.77;;;;;;;;;;5053225;28;20394;-74
2023/04/29 07:06:03;;;;;;;14.25;9.60;;;;;;;;;;5052849;28;20041;-74
2023/04/29 07:08:29;;;;;;;18.58;9.70;;;;;;;;;;5047073;28;20128;-74
2023/04/29 07:10:56;;;;;;;14.20;9.13;;;;;;;;;;5051442;28;20405;-74
2023/04/29 07:13:22;;;;;;;15.23;9.25;;;;;;;;;;5028559;28;20095;-74
2023/04/29 07:15:48;;;;;;;14.05;9.25;;;;;;;;;;5051927;28;20448;-74
2023/04/29 07:18:14;;;;;;;14.88;8.60;;;;;;;;;;5045495;28;20379;-74
2023/04/29 07:20:41;;;;;;;15.73;9.35;;;;;;;;;;5052652;28;20505;-74
2023/04/29 07:23:07;;;;;;;17.95;8.55;;;;;;;;;;5053133;28;20051;-74
2023/04/29 07:25:33;;;;;;;15.20;8.65;;;;;;;;;;5052808;28;20049;-74
2023/04/29 07:27:59;;;;;;;14.27;7.95;;;;;;;;;;5052773;28;20520;-74
2023/04/29 07:30:26;;;;;;;12.82;7.53;;;;;;;;;;5048144;28;20044;-74
2023/04/29 07:32:51;;;;;;;15.38;7.47;;;;;;;;;;5055301;28;20061;-74
2023/04/29 07:35:18;;;;;;;11.55;7.15;;;;;;;;;;5054081;28;20045;-74
2023/04/29 07:37:44;;;;;;;10.93;6.72;;;;;;;;;;5034909;28;20048;-73
2023/04/29 07:40:11;;;;;;;14.00;6.78;;;;;;;;;;5044682;28;20041;-74
2023/04/29 07:42:37;;;;;;;12.85;7.03;;;;;;;;;;5009370;28;20106;-74
2023/04/29 07:45:03;;;;;;;12.10;6.25;;;;;;;;;;5044403;28;20068;-75
2023/04/29 07:47:29;;;;;;;11.45;6.28;;;;;;;;;;5032308;28;20053;-74
2023/04/29 07:49:55;;;;;;;16.27;6.32;;;;;;;;;;5032496;28;20041;-75
2023/04/29 07:52:21;;;;;;;10.18;6.32;;;;;;;;;;5032147;28;20133;-75
2023/04/29 07:54:47;;;;;;;17.20;6.72;;;;;;;;;;5018787;28;20414;-74
2023/04/29 07:57:13;;;;;;;13.88;6.30;;;;;;;;;;5012881;28;20042;-73
2023/04/29 07:59:39;;;;;;;14.98;6.68;;;;;;;;;;4994996;28;20050;-74
2023/04/29 08:02:06;;;;;;;12.25;6.15;;;;;;;;;;5017615;28;20033;-74
2023/04/29 08:04:32;;;;;;;12.43;6.30;;;;;;;;;;5014414;28;20046;-74
2023/04/29 08:06:58;;;;;;;16.77;7.53;;;;;;;;;;5032496;28;20417;-74
2023/04/29 08:09:24;;;;;;;14.15;6.88;;;;;;;;;;5032355;28;20037;-74
2023/04/29 08:11:50;;;;;;;14.60;6.50;;;;;;;;;;5034059;28;20095;-78
2023/04/29 08:14:16;;;;;;;11.90;6.22;;;;;;;;;;5018473;28;20049;-76
2023/04/29 08:16:42;;;;;;;13.15;6.70;;;;;;;;;;5035253;28;20041;-74
2023/04/29 08:19:08;;;;;;;13.68;6.60;;;;;;;;;;5043584;28;20044;-76
2023/04/29 08:21:34;;;;;;;10.68;6.90;;;;;;;;;;5034858;28;20509;-76
2023/04/29 08:24:00;;;;;;;14.38;7.00;;;;;;;;;;5036322;28;20053;-76
2023/04/29 08:26:26;;;;;;;12.52;6.43;;;;;;;;;;5034410;28;20060;-76
2023/04/29 08:28:52;;;;;;;12.57;6.53;;;;;;;;;;5017729;28;20038;-75
2023/04/29 08:31:19;;;;;;;14.07;6.32;;;;;;;;;;5035920;28;20478;-75
2023/04/29 08:33:45;;;;;;;13.35;6.53;;;;;;;;;;5053179;28;20053;-76
2023/04/29 08:36:11;;;;;;;14.10;6.20;;;;;;;;;;5055749;28;20068;-76
2023/04/29 08:38:37;;;;;;;12.45;6.35;;;;;;;;;;5038266;28;20385;-76
2023/04/29 08:41:04;;;;;;;13.70;6.28;;;;;;;;;;5053935;28;20509;-79
2023/04/29 08:43:30;;;;;;;12.55;6.53;;;;;;;;;;5031835;28;20045;-76
2023/04/29 08:45:58;;;;;;;11.43;5.82;;;;;;;;;;5055644;28;20044;-76
2023/04/29 08:48:25;;;;;;;10.88;5.97;;;;;;;;;;5052376;28;20374;-75
2023/04/29 08:50:51;;;;;;;13.15;6.75;;;;;;;;;;5055203;28;20045;-75
2023/04/29 08:53:17;;;;;;;11.88;6.10;;;;;;;;;;5052859;28;20033;-76
2023/04/29 08:55:47;;;;;;;10.75;6.05;;;;;;;;;;4996056;28;20076;-76
2023/04/29 08:58:14;;;;;;;11.90;6.18;;;;;;;;;;5015777;28;20133;-76
2023/04/29 09:00:44;;;;;;;10.02;5.80;;;;;;;;;;5015255;28;20042;-76
2023/04/29 09:03:17;;;;;;;13.23;5.65;;;;;;;;;;5016046;28;20073;-76
2023/04/29 09:05:45;;;;;;;9.13;5.00;;;;;;;;;;4997883;28;20096;-76
2023/04/29 09:08:11;;;;;;;10.63;5.28;;;;;;;;;;5016030;28;20360;-76
2023/04/29 09:10:39;;;;;;;9.43;4.88;;;;;;;;;;5015019;28;20049;-75
2023/04/29 09:13:05;;;;;;;9.38;5.20;;;;;;;;;;5015227;28;20081;-76
2023/04/29 09:15:35;;;;;;;9.07;5.65;;;;;;;;;;5012256;28;20144;-76
2023/04/29 09:18:01;;;;;;;9.27;5.00;;;;;;;;;;5015368;28;20108;-76
2023/04/29 09:20:28;;;;;;;13.70;5.22;;;;;;;;;;4997491;28;20042;-75
2023/04/29 09:22:55;;;;;;;8.70;4.82;;;;;;;;;;4997864;28;20046;-76
2023/04/29 09:25:22;;;;;;;10.90;5.20;;;;;;;;;;5014934;28;20481;-76
2023/04/29 09:27:48;;;;;;;10.73;5.38;;;;;;;;;;5014432;28;20041;-76
2023/04/29 09:30:15;;;;;;;10.43;5.55;;;;;;;;;;4997492;28;20041;-76
2023/04/29 09:32:42;;;;;;;11.18;5.72;;;;;;;;;;5023357;28;20057;-76
2023/04/29 09:35:25;;;;;;;9.00;5.43;;;;;;;;;;5016649;28;20049;-76
2023/04/29 09:37:53;;;;;;;12.98;6.05;;;;;;;;;;5035218;28;20051;-76
2023/04/29 09:40:32;;;;;;;10.95;6.03;;;;;;;;;;5033510;28;20053;-76
2023/04/29 09:42:58;;;;;;;8.77;5.65;;;;;;;;;;5034762;28;20128;-76
2023/04/29 09:45:40;;;;;;;11.35;6.25;;;;;;;;;;5017067;28;20477;-76
2023/04/29 09:48:07;;;;;;;11.82;5.68;;;;;;;;;;5034972;28;20406;-76
2023/04/29 09:50:36;;;;;;;8.25;4.93;;;;;;;;;;5034234;28;20102;-76
2023/04/29 09:53:02;;;;;;;9.40;4.30;;;;;;;;;;5017023;28;20056;-77
2023/04/29 09:55:31;;;;;;;9.02;4.70;;;;;;;;;;5035325;28;20090;-77
2023/04/29 09:57:57;;;;;;;10.45;4.38;;;;;;;;;;5054310;28;20387;-77
2023/04/29 10:00:24;;;;;;;7.55;3.80;;;;;;;;;;5054050;28;20045;-77
2023/04/29 10:02:53;;;;;;;7.55;4.18;;;;;;;;;;5054401;28;20091;-77
2023/04/29 10:05:20;;;;;;;8.50;3.90;;;;;;;;;;5054215;28;20106;-77
2023/04/29 10:07:48;;;;;;;7.35;4.45;;;;;;;;;;5054556;28;20041;-76
2023/04/29 10:10:16;;;;;;;6.63;4.28;;;;;;;;;;5053776;28;20543;-77
2023/04/29 10:12:42;;;;;;;10.18;4.57;;;;;;;;;;5054272;28;20075;-77
2023/04/29 10:15:15;;;;;;;8.85;4.88;;;;;;;;;;5054532;28;20048;-77
2023/04/29 10:17:57;;;;;;;7.93;4.75;;;;;;;;;;5054617;28;20040;-77
2023/04/29 10:20:24;;;;;;;8.18;5.05;;;;;;;;;;5054028;28;20040;-77
2023/04/29 10:22:51;;;;;;;8.60;4.63;;;;;;;;;;5054053;28;20044;-77
2023/04/29 10:25:18;;;;;;;10.23;4.90;;;;;;;;;;5053683;28;20041;-77
2023/04/29 10:27:45;;;;;;;9.57;4.55;;;;;;;;;;5036131;28;20052;-77
2023/04/29 10:30:17;;;;;;;10.13;4.20;;;;;;;;;;5053819;28;20040;-77
2023/04/29 10:32:44;;;;;;;8.73;3.88;;;;;;;;;;5053439;28;20053;-77
2023/04/29 10:35:13;;;;;;;7.20;3.70;;;;;;;;;;5018658;28;20045;-76
2023/04/29 10:37:39;;;;;;;7.30;3.90;;;;;;;;;;5053661;28;20406;-76
2023/04/29 10:40:10;;;;;;;6.30;3.20;;;;;;;;;;5053401;28;20048;-76
2023/04/29 10:42:36;;;;;;;6.05;3.00;;;;;;;;;;5052122;28;20092;-76
2023/04/29 10:45:17;;;;;;;6.68;3.00;;;;;;;;;;5051548;28;20072;-76
2023/04/29 10:48:09;;;;;;;6.30;2.63;;;;;;;;;;5050424;28;20088;-75
2023/04/29 10:50:35;;;;;;;4.53;2.60;;;;;;;;;;5033359;28;20053;-76
2023/04/29 10:53:02;;;;;;;5.85;2.70;;;;;;;;;;5053637;28;20163;-75
2023/04/29 10:55:28;;;;;;;6.60;2.65;;;;;;;;;;5033628;28;20064;-76
2023/04/29 10:57:55;;;;;;;4.50;2.40;;;;;;;;;;4999576;28;20553;-75
2023/04/29 11:00:32;;;;;;;6.05;2.60;;;;;;;;;;5015196;28;20083;-76
2023/04/29 11:02:58;;;;;;;5.03;2.33;;;;;;;;;;5015553;28;20057;-76
2023/04/29 11:05:33;;;;;;;4.70;1.95;;;;;;;;;;5032994;28;20049;-75
2023/04/29 11:08:09;;;;;;;6.72;2.00;;;;;;;;;;5033565;28;20398;-75
2023/04/29 11:10:37;;;;;;;6.30;2.05;;;;;;;;;;5032723;28;20049;-76
2023/04/29 11:13:21;;;;;;;4.57;1.80;;;;;;;;;;5033155;28;20084;-76
2023/04/29 11:15:48;;;;;;;4.93;2.00;;;;;;;;;;5032951;28;20498;-76
2023/04/29 11:18:14;;;;;;;4.82;2.00;;;;;;;;;;4999070;28;20052;-76
2023/04/29 11:20:59;;;;;;;4.68;1.90;;;;;;;;;;5015375;28;20497;-76
2023/04/29 11:23:25;;;;;;;3.47;1.70;;;;;;;;;;5032010;28;20072;-76
2023/04/29 11:25:51;;;;;;;4.95;2.00;;;;;;;;;;5032550;28;20107;-76
2023/04/29 11:28:17;;;;;;;3.92;2.00;;;;;;;;;;5032659;28;20087;-77
2023/04/29 11:30:45;;;;;;;5.57;2.13;;;;;;;;;;5011652;28;20477;-76
2023/04/29 11:33:11;;;;;;;4.85;2.10;;;;;;;;;;5015016;28;20077;-76
2023/04/29 11:35:39;;;;;;;5.75;2.38;;;;;;;;;;5031156;28;20490;-77
2023/04/29 11:38:06;;;;;;;6.22;2.60;;;;;;;;;;5031547;28;20050;-77
2023/04/29 11:40:32;;;;;;;4.38;2.25;;;;;;;;;;5031400;28;20045;-77
2023/04/29 11:42:58;;;;;;;5.90;2.67;;;;;;;;;;5032774;28;20045;-77
2023/04/29 11:45:25;;;;;;;5.25;2.38;;;;;;;;;;5032572;28;20063;-77
2023/04/29 11:47:51;;;;;;;6.50;2.63;;;;;;;;;;5031324;28;20168;-76
2023/04/29 11:50:18;;;;;;;5.82;2.55;;;;;;;;;;5032154;28;20514;-77
2023/04/29 11:52:45;;;;;;;4.30;2.33;;;;;;;;;;5032474;28;20621;-77
2023/04/29 11:55:11;;;;;;;6.03;2.40;;;;;;;;;;5031056;28;20048;-77
2023/04/29 11:57:39;;;;;;;4.70;2.38;;;;;;;;;;5052710;28;20409;-77
2023/04/29 12:00:05;;;;;;;5.53;2.55;;;;;;;;;;5050631;28;20139;-76
2023/04/29 12:02:31;;;;;;;4.15;2.20;;;;;;;;;;5048943;28;20140;-77
2023/04/29 12:04:59;;;;;;;4.75;2.15;;;;;;;;;;5032445;28;20091;-76
2023/04/29 12:07:25;;;;;;;5.95;2.20;;;;;;;;;;5051971;28;20127;-77
2023/04/29 12:09:51;;;;;;;5.05;2.22;;;;;;;;;;5034469;28;20076;-76
2023/04/29 12:12:17;;;;;;;5.68;1.80;;;;;;;;;;5052050;28;20528;-77
2023/04/29 12:14:43;;;;;;;5.28;1.85;;;;;;;;;;5050801;28;20045;-77
2023/04/29 12:17:10;;;;;;;4.68;2.00;;;;;;;;;;5052198;28;20509;-76
2023/04/29 12:19:38;;;;;;;4.60;1.92;;;;;;;;;;5051178;28;20128;-76
2023/04/29 12:22:04;;;;;;;3.05;1.63;;;;;;;;;;5052021;28;20103;-76
2023/04/29 12:24:37;;;;;;;3.15;1.60;;;;;;;;;;5052305;28;20087;-77
2023/04/29 12:27:04;;;;;;;5.60;1.92;;;;;;;;;;5052098;28;20059;-77
2023/04/29 12:29:33;;;;;;;3.40;1.80;;;;;;;;;;5050697;28;20048;-77
2023/04/29 12:31:59;;;;;;;4.70;2.15;;;;;;;;;;5051742;28;20076;-77
2023/04/29 12:34:26;;;;;;;3.83;1.65;;;;;;;;;;5051948;28;20490;-77
2023/04/29 12:36:54;;;;;;;6.13;1.80;;;;;;;;;;5052107;28;20421;-77
2023/04/29 12:39:20;;;;;;;5.30;1.98;;;;;;;;;;5051178;28;20144;-77
2023/04/29 12:41:46;;;;;;;3.53;1.65;;;;;;;;;;5049345;28;20080;-76
2023/04/29 12:44:12;;;;;;;5.47;1.90;;;;;;;;;;5052331;28;20064;-76
2023/04/29 12:46:38;;;;;;;5.32;2.15;;;;;;;;;;5052016;28;20478;-75
2023/04/29 12:49:05;;;;;;;5.13;1.85;;;;;;;;;;5034356;28;20053;-75
2023/04/29 12:51:32;;;;;;;2.80;1.70;;;;;;;;;;5051766;28;20077;-75
2023/04/29 12:54:02;;;;;;;4.28;1.73;;;;;;;;;;5044895;28;20065;-75
2023/04/29 12:56:28;;;;;;;3.42;1.80;;;;;;;;;;5032312;28;20434;-75
2023/04/29 12:58:54;;;;;;;3.83;1.90;;;;;;;;;;5042711;28;20051;-75
2023/04/29 13:01:20;;;;;;;5.07;1.73;;;;;;;;;;5055892;28;20053;-75
2023/04/29 13:03:48;;;;;;;3.85;1.83;;;;;;;;;;5054248;28;20048;-75
2023/04/29 13:06:14;;;;;;;3.17;1.83;;;;;;;;;;5054234;28;20184;-72
2023/04/29 13:08:40;;;;;;;5.25;2.10;;;;;;;;;;5036380;28;20165;-71
2023/04/29 13:11:06;;;;;;;5.28;2.25;;;;;;;;;;5054625;28;20055;-71
2023/04/29 13:13:32;;;;;;;6.40;2.60;;;;;;;;;;5053268;28;20396;-72
2023/04/29 13:15:59;;;;;;;5.80;2.47;;;;;;;;;;5052109;28;20044;-71
2023/04/29 13:18:25;;;;;;;5.70;2.70;;;;;;;;;;5054213;28;20037;-70
2023/04/29 13:20:52;;;;;;;5.63;3.15;;;;;;;;;;5019451;28;20049;-71
2023/04/29 13:23:18;;;;;;;5.85;2.92;;;;;;;;;;5054212;28;20486;-70
2023/04/29 13:25:44;;;;;;;4.28;2.90;;;;;;;;;;5053532;28;20076;-70
2023/04/29 13:28:10;;;;;;;6.63;3.38;;;;;;;;;;5053652;28;20474;-71
2023/04/29 13:30:36;;;;;;;5.93;3.20;;;;;;;;;;5053807;28;20041;-70
2023/04/29 13:33:02;;;;;;;7.97;3.92;;;;;;;;;;5044350;28;20061;-71
2023/04/29 13:35:28;;;;;;;7.82;4.15;;;;;;;;;;5052635;28;20045;-71
2023/04/29 13:37:55;;;;;;;6.75;4.03;;;;;;;;;;5052424;28;20110;-71
2023/04/29 13:40:21;;;;;;;6.93;4.20;;;;;;;;;;5053799;28;20144;-71
2023/04/29 13:42:48;;;;;;;9.20;4.57;;;;;;;;;;5054265;28;20408;-70
2023/04/29 13:45:14;;;;;;;7.88;4.95;;;;;;;;;;5054252;28;20045;-70
2023/04/29 13:47:43;;;;;;;8.13;5.80;;;;;;;;;;5054175;28;20142;-70
2023/04/29 13:50:09;;;;;;;11.63;5.70;;;;;;;;;;5053815;28;20513;-69
2023/04/29 13:52:35;;;;;;;9.90;5.63;;;;;;;;;;5053943;28;20478;-69
2023/04/29 13:55:01;;;;;;;10.15;5.28;;;;;;;;;;5038183;28;20080;-68
2023/04/29 13:57:27;;;;;;;8.02;5.50;;;;;;;;;;5028190;28;20045;-69
2023/04/29 13:59:54;;;;;;;7.18;5.13;;;;;;;;;;5032654;28;20049;-69
2023/04/29 14:02:21;;;;;;;7.43;4.78;;;;;;;;;;5050603;28;20049;-69
2023/04/29 14:04:47;;;;;;;10.30;5.53;;;;;;;;;;5053914;28;20083;-70
2023/04/29 14:07:14;;;;;;;9.20;5.10;;;;;;;;;;5046334;28;20071;-70
2023/04/29 14:09:40;;;;;;;9.50;5.40;;;;;;;;;;5052555;28;20068;-70
2023/04/29 14:12:06;;;;;;;7.75;4.90;;;;;;;;;;5044343;28;20440;-69
2023/04/29 14:14:32;;;;;;;8.82;5.10;;;;;;;;;;5052289;28;20560;-70
2023/04/29 14:17:00;;;;;;;6.97;4.55;;;;;;;;;;5051974;28;20045;-70
2023/04/29 14:19:26;;;;;;;8.88;4.40;;;;;;;;;;5053629;28;20048;-71
2023/04/29 14:21:52;;;;;;;6.03;3.80;;;;;;;;;;5053477;28;20056;-71
2023/04/29 14:24:18;;;;;;;8.00;3.90;;;;;;;;;;5052885;28;20049;-78
2023/04/29 14:26:44;;;;;;;6.05;4.03;;;;;;;;;;5049463;28;20067;-78
2023/04/29 14:29:11;;;;;;;6.88;3.50;;;;;;;;;;5044963;28;20421;-78